Main page
METAR-TAF:

METAR-TAF

Airports :

Tobías Bolaños International Airport

San José, Costa Rica

latitude: 09-57N, longitude: 084-09W, elevation: 994 m

Current weather observation

The report was made 1 hour and 0 minutes ago, at 13:00 UTC
Wind 13 kt from the East/Southeast
Temperature 22°C
Humidity 78%
Pressure 1018 hPa
Visibility 10 km or more
Few clouds at a height of 3000 ft
Scattered clouds at a height of 20000 ft

METAR: MRPV 171300Z 11013KT 9999 FEW030 SCT200 22/18 A3006 NOSIG

Time: 08:00 (14:00 UTC)

Forecast

The report was made 2 hours and 28 minutes ago, at 11:32 UTC
Forecast valid from 17 at 12 UTC to 18 at 12 UTC
Wind 12 kt from the East
Visibility 10 km or more
Few clouds at a height of 2500 ft
Temporary
from 17 at 20 UTC to 17 at 24 UTC
Wind 5 kt from the West
Few clouds at a height of 2000 ft, Towering cumulus.
rain,

TAF: MRPV 171132Z 1712/1812 09012KT 9999 FEW025 TX29/1718Z TN19/1810Z TEMPO 1720/1724 28005KT RA FEW020TCU

Weather observations and forecasts of more than 4000 airports (METAR and TAF reports).

The available stations are represented by yellow and red dots on the map.

Hover mouse over dot to see the name of the station.

Then click to see weather observations and forecasts.

To change the map : click on the green buttons with a black cross to zoom in, on the green button with a dash to zoom out, or on the green arrows for adjacent maps.


METAR-TAF: